createdAt,value
2023-04-15T00:00:29.639Z,2.76
2023-04-15T00:01:31.739Z,2.73
2023-04-15T00:02:29.775Z,2.70
2023-04-15T00:07:19.949Z,2.70
2023-04-15T00:29:10.168Z,2.59
2023-04-15T00:29:49.951Z,2.58
2023-04-15T00:30:49.986Z,2.61
2023-04-15T00:31:49.941Z,2.63
2023-04-15T00:32:50.003Z,2.63
2023-04-15T00:33:49.910Z,2.63
2023-04-15T00:34:49.984Z,2.59
2023-04-15T00:35:49.883Z,2.59
2023-04-15T00:36:50.539Z,2.61
2023-04-15T00:37:49.865Z,2.61
2023-04-15T00:38:49.901Z,2.63
2023-04-15T00:39:49.843Z,2.63
2023-04-15T00:40:49.960Z,2.64
2023-04-15T00:41:49.825Z,2.64
2023-04-15T00:42:49.937Z,2.63
2023-04-15T00:43:49.797Z,2.63
2023-04-15T00:44:49.851Z,2.63
2023-04-15T00:45:49.822Z,2.61
2023-04-15T00:46:49.884Z,2.59
2023-04-15T00:47:49.856Z,2.58
2023-04-15T00:48:49.886Z,2.58
2023-04-15T00:49:49.744Z,2.58
2023-04-15T00:50:49.895Z,2.55
2023-04-15T00:51:49.729Z,2.55
2023-04-15T00:52:50.887Z,2.55
2023-04-15T00:53:49.702Z,2.55
2023-04-15T00:54:49.817Z,2.55
2023-04-15T00:55:49.704Z,2.53
2023-04-15T00:57:11.782Z,2.52
2023-04-15T00:57:49.688Z,2.51
2023-04-15T00:59:12.780Z,2.52
2023-04-15T00:59:49.653Z,2.52
2023-04-15T01:00:49.692Z,2.53
2023-04-15T01:01:49.731Z,2.55
2023-04-15T01:02:49.840Z,2.59
2023-04-15T01:03:49.778Z,2.55
2023-04-15T01:04:49.729Z,2.55
2023-04-15T01:05:49.606Z,2.56
2023-04-15T01:06:49.701Z,2.52
2023-04-15T01:07:49.557Z,2.49
2023-04-15T01:08:49.622Z,2.48
2023-04-15T01:09:49.548Z,2.48
2023-04-15T01:10:49.661Z,2.46
2023-04-15T01:11:49.547Z,2.45
2023-04-15T01:12:49.690Z,2.41
2023-04-15T01:13:49.500Z,2.38
2023-04-15T01:14:49.562Z,2.33
2023-04-15T01:15:49.518Z,2.30
2023-04-15T01:16:49.580Z,2.26
2023-04-15T01:17:49.554Z,2.26
2023-04-15T01:18:49.605Z,2.23
2023-04-15T01:19:49.434Z,2.19
2023-04-15T01:20:49.512Z,2.19
2023-04-15T01:21:49.437Z,2.17
2023-04-15T01:22:49.511Z,2.17
2023-04-15T01:23:49.396Z,2.15
2023-04-15T01:24:49.582Z,2.15
2023-04-15T01:25:49.382Z,2.16
2023-04-15T01:26:49.481Z,2.16
2023-04-15T01:27:49.363Z,2.17
2023-04-15T01:28:49.468Z,2.16
2023-04-15T01:29:49.342Z,2.17
2023-04-15T01:30:49.472Z,2.19
2023-04-15T01:31:49.409Z,2.19
2023-04-15T01:32:49.459Z,2.20
2023-04-15T01:33:49.288Z,2.20
2023-04-15T01:34:49.397Z,2.20
2023-04-15T01:35:49.273Z,2.20
2023-04-15T01:36:49.446Z,2.20
2023-04-15T01:37:49.253Z,2.20
2023-04-15T01:38:49.318Z,2.19
2023-04-15T01:39:49.236Z,2.17
2023-04-15T01:40:49.373Z,2.16
2023-04-15T01:41:49.234Z,2.16
2023-04-15T01:42:49.345Z,2.15
2023-04-15T01:43:49.189Z,2.17
2023-04-15T01:44:49.364Z,2.20
2023-04-15T01:45:49.176Z,2.19
2023-04-15T01:46:49.398Z,2.17
2023-04-15T01:47:49.173Z,2.17
2023-04-15T01:49:12.241Z,2.17
2023-04-15T01:49:49.137Z,2.17
2023-04-15T01:50:49.309Z,2.19
2023-04-15T01:51:49.118Z,2.16
2023-04-15T01:52:49.283Z,2.17
2023-04-15T01:53:49.086Z,2.16
2023-04-15T01:54:51.188Z,2.16
2023-04-15T01:55:49.072Z,2.16
2023-04-15T01:56:50.170Z,2.15
2023-04-15T01:57:49.077Z,2.15
2023-04-15T01:58:49.162Z,2.13
2023-04-15T01:59:49.028Z,2.15
2023-04-15T02:00:49.209Z,2.16
2023-04-15T02:01:49.035Z,2.16
2023-04-15T02:02:49.643Z,2.16
2023-04-15T02:03:49.175Z,2.16
2023-04-15T02:04:49.125Z,2.15
2023-04-15T02:05:48.980Z,2.13
2023-04-15T02:06:49.142Z,2.15
2023-04-15T02:07:48.954Z,2.15
2023-04-15T02:08:49.153Z,2.15
2023-04-15T02:09:48.936Z,2.15
2023-04-15T02:10:49.058Z,2.13
2023-04-15T02:11:48.912Z,2.15
2023-04-15T02:12:49.068Z,2.13
2023-04-15T02:13:48.909Z,2.10
2023-04-15T02:14:49.080Z,2.09
2023-04-15T02:15:48.890Z,2.09
2023-04-15T02:16:49.091Z,2.09
2023-04-15T02:17:48.868Z,2.10
2023-04-15T02:18:49.138Z,2.09
2023-04-15T02:19:48.826Z,2.10
2023-04-15T02:20:49.006Z,2.12
2023-04-15T02:21:48.809Z,2.12
2023-04-15T02:22:48.932Z,2.10
2023-04-15T02:23:48.802Z,2.08
2023-04-15T02:24:48.952Z,2.09
2023-04-15T02:25:53.289Z,2.06
2023-04-15T02:26:48.785Z,2.06
2023-04-15T02:27:48.985Z,2.04
2023-04-15T02:28:48.747Z,2.02
2023-04-15T02:29:48.898Z,2.04
2023-04-15T02:30:48.734Z,2.04
2023-04-15T02:31:48.949Z,2.06
2023-04-15T02:32:48.762Z,2.02
2023-04-15T02:33:48.862Z,2.01
2023-04-15T02:34:48.687Z,1.98
2023-04-15T02:35:50.872Z,1.99
2023-04-15T02:36:48.660Z,2.01
2023-04-15T02:37:48.838Z,2.01
2023-04-15T02:38:48.657Z,2.02
2023-04-15T02:39:48.835Z,2.01
2023-04-15T02:40:48.626Z,2.04
2023-04-15T02:41:48.761Z,2.09
2023-04-15T02:42:48.610Z,2.10
2023-04-15T02:43:48.794Z,2.08
2023-04-15T02:44:48.594Z,2.04
2023-04-15T02:45:49.730Z,2.04
2023-04-15T02:46:48.574Z,2.02
2023-04-15T02:47:48.752Z,2.02
2023-04-15T02:48:48.557Z,2.02
2023-04-15T02:49:48.709Z,2.04
2023-04-15T02:50:48.532Z,2.06
2023-04-15T02:51:48.613Z,2.04
2023-04-15T02:52:48.504Z,2.06
2023-04-15T02:53:48.617Z,2.06
2023-04-15T02:54:48.485Z,2.02
2023-04-15T02:55:48.544Z,2.01
2023-04-15T02:56:48.463Z,1.98
2023-04-15T02:57:48.551Z,1.93
2023-04-15T02:58:48.454Z,1.90
2023-04-15T02:59:48.483Z,1.89
2023-04-15T03:00:48.417Z,1.85
2023-04-15T03:01:48.663Z,1.85
2023-04-15T03:02:48.474Z,1.85
2023-04-15T03:03:48.585Z,1.85
2023-04-15T03:04:48.392Z,1.89
2023-04-15T03:05:48.413Z,1.87
2023-04-15T03:06:48.346Z,1.82
2023-04-15T03:07:48.446Z,1.80
2023-04-15T03:08:48.330Z,1.82
2023-04-15T03:09:48.494Z,1.80
2023-04-15T03:10:48.343Z,1.82
2023-04-15T03:11:48.371Z,1.82
2023-04-15T03:12:48.302Z,1.83
2023-04-15T03:13:48.353Z,1.85
2023-04-15T03:14:48.257Z,1.87
2023-04-15T03:15:48.483Z,1.87
2023-04-15T03:16:48.250Z,1.89
2023-04-15T03:18:09.380Z,1.87
2023-04-15T03:18:48.237Z,1.87
2023-04-15T03:19:50.353Z,1.89
2023-04-15T03:20:48.222Z,1.89
2023-04-15T03:21:49.367Z,1.90
2023-04-15T03:22:48.181Z,1.91
2023-04-15T03:23:48.281Z,1.90
2023-04-15T03:24:48.181Z,1.87
2023-04-15T03:25:48.297Z,1.83
2023-04-15T03:26:48.156Z,1.82
2023-04-15T03:27:48.328Z,1.82
2023-04-15T03:28:48.136Z,1.78
2023-04-15T03:29:48.166Z,1.78
2023-04-15T03:30:48.286Z,1.78
2023-04-15T03:31:48.183Z,1.76
2023-04-15T03:32:48.132Z,1.76
2023-04-15T03:33:48.244Z,1.75
2023-04-15T03:34:48.065Z,1.72
2023-04-15T03:35:48.168Z,1.69
2023-04-15T03:36:48.053Z,1.61
2023-04-15T03:37:48.129Z,1.58
2023-04-15T03:38:48.041Z,1.61
2023-04-15T03:39:48.174Z,1.64
2023-04-15T03:40:48.014Z,1.65
2023-04-15T03:41:48.155Z,1.65
2023-04-15T03:42:47.997Z,1.65
2023-04-15T03:43:48.071Z,1.68
2023-04-15T03:44:47.992Z,1.69
2023-04-15T03:45:48.080Z,1.71
2023-04-15T03:46:48.159Z,1.68
2023-04-15T03:47:48.141Z,1.69
2023-04-15T03:48:47.920Z,1.64
2023-04-15T03:49:48.000Z,1.62
2023-04-15T03:50:47.899Z,1.61
2023-04-15T03:51:48.088Z,1.61
2023-04-15T03:52:49.177Z,1.58
2023-04-15T03:53:48.039Z,1.60
2023-04-15T03:54:47.881Z,1.61
2023-04-15T03:55:47.984Z,1.61
2023-04-15T03:56:47.865Z,1.62
2023-04-15T03:57:47.956Z,1.61
2023-04-15T03:58:47.829Z,1.62
2023-04-15T03:59:47.966Z,1.61
2023-04-15T04:00:47.815Z,1.60
2023-04-15T04:01:48.022Z,1.54
2023-04-15T04:02:47.930Z,1.52
2023-04-15T04:03:48.098Z,1.51
2023-04-15T04:04:47.839Z,1.52
2023-04-15T04:05:47.984Z,1.52
2023-04-15T04:06:47.761Z,1.54
2023-04-15T04:07:48.938Z,1.55
2023-04-15T04:08:47.725Z,1.57
2023-04-15T04:09:47.903Z,1.55
2023-04-15T04:10:47.723Z,1.54
2023-04-15T04:11:47.971Z,1.54
2023-04-15T04:12:47.693Z,1.54
2023-04-15T04:15:03.780Z,1.57
2023-04-15T04:16:04.769Z,1.60
2023-04-15T04:17:04.831Z,1.60
2023-04-15T04:18:04.599Z,1.62
2023-04-15T04:19:04.708Z,1.64
2023-04-15T04:20:04.592Z,1.69
2023-04-15T04:21:04.721Z,1.69
2023-04-15T04:22:04.577Z,1.73
2023-04-15T04:23:04.723Z,1.75
2023-04-15T04:24:04.534Z,1.75
2023-04-15T04:25:04.635Z,1.79
2023-04-15T04:26:04.515Z,1.80
2023-04-15T04:27:04.694Z,1.83
2023-04-15T04:28:04.506Z,1.83
2023-04-15T04:29:04.662Z,1.85
2023-04-15T04:30:04.489Z,1.87
2023-04-15T04:31:04.590Z,1.89
2023-04-15T04:32:04.522Z,1.90
2023-04-15T04:33:04.626Z,1.91
2023-04-15T04:34:04.439Z,1.93
2023-04-15T04:35:04.601Z,1.94
2023-04-15T04:36:04.432Z,1.94
2023-04-15T04:37:04.544Z,1.94
2023-04-15T04:38:04.398Z,1.87
2023-04-15T04:39:04.545Z,1.83
2023-04-15T04:40:04.391Z,1.83
2023-04-15T04:41:04.570Z,1.82
2023-04-15T04:42:04.363Z,1.78
2023-04-15T04:43:04.482Z,1.75
2023-04-15T04:44:04.348Z,1.69
2023-04-15T04:45:04.499Z,1.65
2023-04-15T04:46:04.377Z,1.64
2023-04-15T04:47:04.495Z,1.61
2023-04-15T04:48:04.372Z,1.60
2023-04-15T04:49:04.559Z,1.60
2023-04-15T04:50:04.288Z,1.58
2023-04-15T04:51:04.421Z,1.58
2023-04-15T04:52:04.267Z,1.55
2023-04-15T04:53:04.448Z,1.57
2023-04-15T04:54:04.242Z,1.52
2023-04-15T04:55:04.467Z,1.55
2023-04-15T04:56:04.242Z,1.52
2023-04-15T04:57:05.398Z,1.50
2023-04-15T04:58:04.217Z,1.50
2023-04-15T04:59:05.388Z,1.44
2023-04-15T05:00:04.203Z,1.50
2023-04-15T05:01:04.394Z,1.52
2023-04-15T05:02:04.276Z,1.52
2023-04-15T05:03:06.576Z,1.52
2023-04-15T05:04:04.212Z,1.54
2023-04-15T05:05:06.252Z,1.52
2023-04-15T05:06:04.117Z,1.57
2023-04-15T05:07:05.246Z,1.58
2023-04-15T05:08:04.124Z,1.61
2023-04-15T05:09:04.232Z,1.62
2023-04-15T05:10:04.126Z,1.64
2023-04-15T05:11:04.258Z,1.65
2023-04-15T05:12:04.091Z,1.68
2023-04-15T05:13:04.161Z,1.62
2023-04-15T05:14:04.063Z,1.58
2023-04-15T05:15:04.070Z,1.61
2023-04-15T05:16:04.054Z,1.60
2023-04-15T05:17:04.148Z,1.60
2023-04-15T05:18:04.074Z,1.61
2023-04-15T05:19:04.154Z,1.61
2023-04-15T05:20:03.994Z,1.58
2023-04-15T05:21:04.032Z,1.62
2023-04-15T05:22:03.985Z,1.62
2023-04-15T05:23:07.356Z,1.65
2023-04-15T05:24:03.955Z,1.69
2023-04-15T05:25:04.083Z,1.69
2023-04-15T05:26:03.942Z,1.71
2023-04-15T05:27:03.997Z,1.71
2023-04-15T05:28:03.897Z,1.73
2023-04-15T05:29:04.238Z,1.69
2023-04-15T05:30:03.890Z,1.69
2023-04-15T05:31:04.060Z,1.71
2023-04-15T05:32:03.885Z,1.72
2023-04-15T05:33:03.997Z,1.73
2023-04-15T05:34:03.847Z,1.75
2023-04-15T05:35:03.938Z,1.73
2023-04-15T05:36:03.829Z,1.76
2023-04-15T05:37:04.000Z,1.75
2023-04-15T05:38:03.821Z,1.72
2023-04-15T05:39:04.899Z,1.72
2023-04-15T05:40:03.806Z,1.73
2023-04-15T05:41:03.880Z,1.76
2023-04-15T05:42:03.792Z,1.75
2023-04-15T05:43:04.893Z,1.78
2023-04-15T05:44:03.749Z,1.78
2023-04-15T05:45:04.971Z,1.73
2023-04-15T05:46:03.895Z,1.73
2023-04-15T05:47:07.075Z,1.75
2023-04-15T05:48:03.711Z,1.78
2023-04-15T05:49:04.009Z,1.79
2023-04-15T05:50:03.688Z,1.82
2023-04-15T05:51:04.790Z,1.85
2023-04-15T05:52:03.679Z,1.89
2023-04-15T05:53:03.782Z,1.97
2023-04-15T05:54:03.649Z,2.01
2023-04-15T05:55:03.780Z,2.08
2023-04-15T05:56:03.625Z,2.12
2023-04-15T05:57:03.789Z,2.13
2023-04-15T05:58:03.607Z,2.15
2023-04-15T05:59:03.705Z,2.16
2023-04-15T06:00:03.595Z,2.19
2023-04-15T06:01:03.694Z,2.20
2023-04-15T06:02:03.604Z,2.23
2023-04-15T06:03:03.704Z,2.27
2023-04-15T06:04:03.715Z,2.30
2023-04-15T06:05:03.760Z,2.34
2023-04-15T06:06:03.555Z,2.35
2023-04-15T06:07:03.652Z,2.33
2023-04-15T06:08:03.528Z,2.35
2023-04-15T06:09:04.262Z,2.35
2023-04-15T06:10:03.495Z,2.41
2023-04-15T06:11:03.555Z,2.46
2023-04-15T06:12:03.486Z,2.51
2023-04-15T06:13:03.573Z,2.55
2023-04-15T06:14:03.483Z,2.59
2023-04-15T06:15:03.583Z,2.64
2023-04-15T06:16:03.446Z,2.71
2023-04-15T06:17:03.503Z,2.76
2023-04-15T06:18:03.429Z,2.77
2023-04-15T06:19:03.575Z,2.82
2023-04-15T06:20:03.395Z,2.84
2023-04-15T06:21:03.525Z,2.87
2023-04-15T06:22:03.377Z,2.91
2023-04-15T06:23:03.508Z,2.92
2023-04-15T06:24:03.343Z,2.94
2023-04-15T06:25:03.457Z,2.97
2023-04-15T06:26:03.340Z,3.00
2023-04-15T06:27:03.474Z,3.06
2023-04-15T06:28:03.328Z,3.12
2023-04-15T06:29:03.553Z,3.18
2023-04-15T06:30:03.283Z,3.24
2023-04-15T06:31:04.429Z,3.31
2023-04-15T06:32:03.256Z,3.40
2023-04-15T06:33:03.519Z,3.47
2023-04-15T06:34:03.244Z,3.52
2023-04-15T06:35:05.377Z,3.54
2023-04-15T06:36:03.223Z,3.58
2023-04-15T06:37:06.319Z,3.61
2023-04-15T06:38:03.241Z,3.67
2023-04-15T06:39:05.290Z,3.71
2023-04-15T06:40:03.196Z,3.76
2023-04-15T06:41:03.263Z,3.76
2023-04-15T06:42:03.164Z,3.79
2023-04-15T06:43:03.371Z,3.85
2023-04-15T06:44:03.149Z,3.88
2023-04-15T06:45:03.377Z,3.89
2023-04-15T06:46:03.183Z,3.92
2023-04-15T06:47:03.302Z,3.98
2023-04-15T06:48:03.129Z,4.03
2023-04-15T06:49:03.433Z,4.07
2023-04-15T06:50:03.090Z,4.12
2023-04-15T06:51:03.226Z,4.16
2023-04-15T06:52:03.060Z,4.21
2023-04-15T06:53:03.580Z,4.26
2023-04-15T06:54:03.101Z,4.32
2023-04-15T06:55:03.272Z,4.37
2023-04-15T06:56:03.025Z,4.42
2023-04-15T06:57:03.206Z,4.44
2023-04-15T06:58:02.992Z,4.51
2023-04-15T06:59:03.328Z,4.55
2023-04-15T07:00:02.979Z,4.59
2023-04-15T07:01:03.192Z,4.65
2023-04-15T07:02:03.036Z,4.73
2023-04-15T07:03:03.187Z,4.76
2023-04-15T07:04:03.026Z,4.84
2023-04-15T07:05:03.115Z,4.91
2023-04-15T07:06:03.053Z,4.94
2023-04-15T07:07:03.030Z,4.99
2023-04-15T07:08:02.928Z,5.04
2023-04-15T07:09:03.343Z,5.09
2023-04-15T07:10:02.894Z,5.12
2023-04-15T07:11:03.082Z,5.14
2023-04-15T07:12:02.902Z,5.19
2023-04-15T07:13:03.021Z,5.23
2023-04-15T07:14:02.841Z,5.30
2023-04-15T07:15:03.251Z,5.30
2023-04-15T07:16:02.886Z,5.35
2023-04-15T07:17:03.034Z,5.40
2023-04-15T07:18:02.978Z,5.41
2023-04-15T07:19:03.337Z,5.45
2023-04-15T07:20:02.777Z,5.48
2023-04-15T07:21:02.929Z,5.52
2023-04-15T07:22:02.752Z,5.55
2023-04-15T07:23:03.001Z,5.59
2023-04-15T07:24:02.820Z,5.64
2023-04-15T07:25:04.927Z,5.67
2023-04-15T07:26:02.715Z,5.70
2023-04-15T07:27:04.933Z,5.74
2023-04-15T07:28:02.715Z,5.75
2023-04-15T07:30:19.657Z,5.92
2023-04-15T07:31:20.465Z,5.95
2023-04-15T07:32:20.706Z,6.04
2023-04-15T07:33:20.431Z,6.10
2023-04-15T07:34:20.568Z,6.18
2023-04-15T07:35:20.400Z,6.25
2023-04-15T07:36:20.463Z,6.35
2023-04-15T07:37:20.414Z,6.43
2023-04-15T07:38:24.208Z,6.50
2023-04-15T07:39:20.464Z,6.58
2023-04-15T07:40:20.521Z,6.63
2023-04-15T07:41:20.350Z,6.66
2023-04-15T07:42:20.422Z,6.73
2023-04-15T07:43:20.324Z,6.76
2023-04-15T07:44:20.420Z,6.80
2023-04-15T07:45:20.334Z,6.81
2023-04-15T07:46:20.486Z,6.84
2023-04-15T07:47:20.320Z,6.90
2023-04-15T07:48:22.743Z,6.97
2023-04-15T07:49:20.264Z,7.04
2023-04-15T07:50:22.392Z,7.12
2023-04-15T07:51:20.247Z,7.17
2023-04-15T07:52:22.325Z,7.23
2023-04-15T07:53:20.534Z,7.29
2023-04-15T07:54:20.348Z,7.32
2023-04-15T07:55:20.209Z,7.41
2023-04-15T07:56:20.293Z,7.49
2023-04-15T07:57:20.176Z,7.58
2023-04-15T07:58:21.306Z,7.67
2023-04-15T07:59:20.180Z,7.78
2023-04-15T08:00:20.380Z,7.90
2023-04-15T08:01:20.150Z,8.04
2023-04-15T08:02:20.429Z,8.12
2023-04-15T08:03:20.249Z,8.22
2023-04-15T08:04:20.367Z,8.35
2023-04-15T08:05:20.139Z,8.40
2023-04-15T08:06:20.172Z,8.51
2023-04-15T08:07:20.071Z,8.62
2023-04-15T08:08:20.320Z,8.75
2023-04-15T08:09:20.109Z,8.90
2023-04-15T08:10:20.225Z,9.05
2023-04-15T08:11:20.110Z,9.16
2023-04-15T08:12:20.093Z,9.23
2023-04-15T08:13:20.034Z,9.28
2023-04-15T08:14:20.119Z,9.39
2023-04-15T08:15:20.024Z,9.49
2023-04-15T08:16:20.271Z,9.53
2023-04-15T08:17:19.994Z,9.58
2023-04-15T08:18:20.037Z,9.60
2023-04-15T08:19:19.966Z,9.67
2023-04-15T08:20:20.110Z,9.78
2023-04-15T08:21:19.947Z,9.96
2023-04-15T08:22:21.222Z,10.06
2023-04-15T08:23:19.953Z,10.06
2023-04-15T08:24:19.975Z,10.15
2023-04-15T08:25:19.883Z,10.17
2023-04-15T08:26:20.036Z,10.22
2023-04-15T08:27:19.880Z,10.26
2023-04-15T08:28:20.061Z,10.32
2023-04-15T08:29:19.841Z,10.39
2023-04-15T08:30:19.975Z,10.53
2023-04-15T08:31:19.865Z,10.62
2023-04-15T08:32:19.983Z,10.68
2023-04-15T08:33:19.848Z,10.73
2023-04-15T08:34:19.950Z,10.77
2023-04-15T08:35:19.795Z,10.86
2023-04-15T08:36:41.866Z,10.88
2023-04-15T08:37:19.775Z,10.98
2023-04-15T08:38:21.927Z,11.01
2023-04-15T08:39:19.764Z,11.06
2023-04-15T08:40:20.911Z,11.06
2023-04-15T08:41:19.734Z,11.06
2023-04-15T08:42:19.832Z,11.03
2023-04-15T08:43:19.707Z,11.06
2023-04-15T08:44:21.798Z,11.06
2023-04-15T08:45:19.688Z,11.07
2023-04-15T08:46:19.851Z,11.06
2023-04-15T08:47:19.685Z,11.10
2023-04-15T08:48:19.731Z,11.10
2023-04-15T08:49:19.670Z,11.11
2023-04-15T08:50:19.747Z,11.16
2023-04-15T08:51:19.619Z,11.16
2023-04-15T08:52:19.768Z,11.10
2023-04-15T08:53:19.607Z,11.09
2023-04-15T08:54:19.709Z,11.11
2023-04-15T08:55:19.605Z,11.16
2023-04-15T08:56:19.717Z,11.13
2023-04-15T08:57:19.572Z,11.11
2023-04-15T08:58:19.757Z,11.11
2023-04-15T08:59:19.553Z,11.09
2023-04-15T09:00:19.680Z,11.07
2023-04-15T09:01:19.580Z,11.07
2023-04-15T09:02:19.761Z,11.06
2023-04-15T09:03:19.575Z,11.07
2023-04-15T09:04:19.884Z,11.06
2023-04-15T09:05:19.491Z,11.03
2023-04-15T09:06:19.705Z,11.02
2023-04-15T09:07:19.459Z,10.99
2023-04-15T09:08:19.672Z,10.99
2023-04-15T09:09:19.450Z,10.96
2023-04-15T09:10:19.598Z,10.95
2023-04-15T09:11:20.218Z,10.98
2023-04-15T09:12:19.601Z,10.96
2023-04-15T09:13:19.431Z,10.99
2023-04-15T09:14:19.611Z,11.02
2023-04-15T09:15:19.389Z,11.06
2023-04-15T09:16:19.605Z,11.11
2023-04-15T09:17:19.465Z,11.10
2023-04-15T09:18:19.534Z,11.13
2023-04-15T09:19:19.332Z,11.14
2023-04-15T09:20:19.510Z,11.17
2023-04-15T09:21:19.319Z,11.16
2023-04-15T09:22:19.474Z,11.19
2023-04-15T09:23:19.312Z,11.20
2023-04-15T09:24:19.507Z,11.21
2023-04-15T09:25:19.291Z,11.25
2023-04-15T09:26:21.434Z,11.28
2023-04-15T09:27:19.263Z,11.32
2023-04-15T09:28:20.421Z,11.32
2023-04-15T09:29:19.225Z,11.28
2023-04-15T09:30:19.352Z,11.28
2023-04-15T09:31:19.240Z,11.27
2023-04-15T09:32:19.331Z,11.28
2023-04-15T09:33:19.261Z,11.29
2023-04-15T09:34:19.451Z,11.31
2023-04-15T09:35:19.262Z,11.34
2023-04-15T09:36:19.506Z,11.35
2023-04-15T09:37:31.507Z,11.36
2023-04-15T09:38:19.161Z,11.39
2023-04-15T09:39:19.329Z,11.43
2023-04-15T09:40:19.139Z,11.44
2023-04-15T09:41:19.384Z,11.49
2023-04-15T09:42:19.108Z,11.49
2023-04-15T09:43:19.239Z,11.46
2023-04-15T09:44:19.062Z,11.38
2023-04-15T09:45:19.217Z,11.34
2023-04-15T09:46:19.106Z,11.31
2023-04-15T09:47:19.334Z,11.29
2023-04-15T09:48:19.032Z,11.28
2023-04-15T09:49:19.202Z,11.25
2023-04-15T09:50:19.010Z,11.25
2023-04-15T09:51:19.482Z,11.25
2023-04-15T09:52:18.998Z,11.25
2023-04-15T09:53:19.201Z,11.25
2023-04-15T09:54:18.977Z,11.24
2023-04-15T09:55:19.254Z,11.20
2023-04-15T09:56:18.977Z,11.17
2023-04-15T09:57:19.260Z,11.16
2023-04-15T09:58:19.003Z,11.16
2023-04-15T09:59:21.829Z,11.16
2023-04-15T10:00:18.915Z,11.16
2023-04-15T10:01:19.120Z,11.19
2023-04-15T10:02:18.962Z,11.20
2023-04-15T10:03:19.327Z,11.21
2023-04-15T10:04:19.029Z,11.24
2023-04-15T10:05:18.962Z,11.25
2023-04-15T10:06:19.178Z,11.29
2023-04-15T10:07:18.993Z,11.28
2023-04-15T10:08:18.846Z,11.28
2023-04-15T10:09:18.932Z,11.29
2023-04-15T10:10:18.812Z,11.29
2023-04-15T10:11:18.908Z,11.25
2023-04-15T10:12:18.793Z,11.24
2023-04-15T10:13:18.897Z,11.27
2023-04-15T10:14:18.757Z,11.28
2023-04-15T10:15:18.803Z,11.28
2023-04-15T10:16:18.817Z,11.31
2023-04-15T10:17:18.825Z,11.29
2023-04-15T10:18:18.733Z,11.31
2023-04-15T10:19:18.844Z,11.32
2023-04-15T10:20:18.721Z,11.36
2023-04-15T10:21:18.908Z,11.38
2023-04-15T10:22:18.685Z,11.39
2023-04-15T10:23:18.750Z,11.43
2023-04-15T10:24:18.650Z,11.41
2023-04-15T10:25:18.807Z,11.39
2023-04-15T10:26:18.639Z,11.36
2023-04-15T10:27:18.748Z,11.41
2023-04-15T10:28:18.633Z,11.43
2023-04-15T10:29:18.699Z,11.46
2023-04-15T10:30:18.602Z,11.47
2023-04-15T10:31:18.764Z,11.46
2023-04-15T10:32:18.672Z,11.47
2023-04-15T10:33:18.610Z,11.49
2023-04-15T10:34:18.569Z,11.49
2023-04-15T10:35:18.629Z,11.49
2023-04-15T10:36:18.545Z,11.53
2023-04-15T10:37:18.578Z,11.52
2023-04-15T10:38:18.531Z,11.54
2023-04-15T10:39:18.602Z,11.57
2023-04-15T10:40:18.495Z,11.59
2023-04-15T10:41:20.490Z,11.62
2023-04-15T10:42:18.514Z,11.68
2023-04-15T10:43:18.574Z,11.70
2023-04-15T10:44:18.457Z,11.70
2023-04-15T10:45:18.479Z,11.68
2023-04-15T10:46:18.482Z,11.68
2023-04-15T10:47:18.516Z,11.68
2023-04-15T10:48:18.426Z,11.70
2023-04-15T10:49:18.435Z,11.70
2023-04-15T10:50:18.402Z,11.75
2023-04-15T10:51:18.423Z,11.83
2023-04-15T10:52:18.388Z,11.86
2023-04-15T10:53:19.417Z,11.89
2023-04-15T10:54:18.379Z,11.96
2023-04-15T10:55:18.462Z,12.08
2023-04-15T10:56:18.323Z,12.12
2023-04-15T10:57:18.406Z,12.20
2023-04-15T10:58:18.312Z,12.23
2023-04-15T10:59:18.909Z,12.23
2023-04-15T11:00:18.291Z,12.24
2023-04-15T11:01:18.394Z,12.20
2023-04-15T11:02:18.373Z,12.20
2023-04-15T11:03:18.423Z,12.24
2023-04-15T11:04:18.320Z,12.29
2023-04-15T11:05:18.347Z,12.26
2023-04-15T11:06:18.243Z,12.20
2023-04-15T11:07:18.366Z,12.12
2023-04-15T11:08:18.224Z,12.05
2023-04-15T11:09:18.295Z,11.94
2023-04-15T11:10:18.201Z,11.83
2023-04-15T11:11:18.242Z,11.71
2023-04-15T11:12:18.180Z,11.64
2023-04-15T11:13:18.265Z,11.53
2023-04-15T11:14:18.145Z,11.47
2023-04-15T11:15:18.193Z,11.39
2023-04-15T11:16:18.187Z,11.32
2023-04-15T11:17:18.229Z,11.25
2023-04-15T11:18:18.112Z,11.21
2023-04-15T11:19:18.190Z,11.19
2023-04-15T11:20:18.075Z,11.17
2023-04-15T11:21:18.092Z,11.19
2023-04-15T11:22:18.051Z,11.13
2023-04-15T11:23:18.153Z,11.13
2023-04-15T11:24:18.039Z,11.14
2023-04-15T11:25:18.168Z,11.13
2023-04-15T11:26:18.010Z,11.13
2023-04-15T11:27:18.042Z,11.13
2023-04-15T11:28:18.009Z,11.13
2023-04-15T11:29:18.104Z,11.10
2023-04-15T11:30:17.980Z,11.10
2023-04-15T11:31:18.426Z,11.09
2023-04-15T11:32:18.225Z,11.06
2023-04-15T11:33:18.022Z,11.07
2023-04-15T11:34:17.930Z,11.07
2023-04-15T11:35:17.991Z,11.09
2023-04-15T11:36:17.913Z,11.14
2023-04-15T11:37:18.163Z,11.19
2023-04-15T11:38:17.909Z,11.28
2023-04-15T11:39:17.949Z,11.35
2023-04-15T11:40:17.883Z,11.43
2023-04-15T11:41:17.958Z,11.49
2023-04-15T11:42:17.857Z,11.47
2023-04-15T11:43:17.945Z,11.52
2023-04-15T11:44:17.834Z,11.54
2023-04-15T11:45:17.853Z,11.57
2023-04-15T11:46:17.856Z,11.57
2023-04-15T11:47:17.991Z,11.59
2023-04-15T11:48:17.782Z,11.65
2023-04-15T11:49:17.911Z,11.67
2023-04-15T11:50:17.793Z,11.67
2023-04-15T11:51:17.834Z,11.67
2023-04-15T11:52:17.765Z,11.68
2023-04-15T11:53:17.795Z,11.68
2023-04-15T11:54:17.724Z,11.61
2023-04-15T11:55:17.808Z,11.56
2023-04-15T11:56:17.713Z,11.53
2023-04-15T11:57:17.717Z,11.49
2023-04-15T11:58:17.676Z,11.47
2023-04-15T11:59:17.733Z,11.50
2023-04-15T12:00:17.666Z,11.53
2023-04-15T12:01:17.849Z,11.57
2023-04-15T12:02:17.757Z,11.65
2023-04-15T12:03:17.932Z,11.71
2023-04-15T12:04:17.859Z,11.82
2023-04-15T12:05:17.870Z,11.85
2023-04-15T12:06:17.601Z,11.89
2023-04-15T12:07:17.691Z,11.96
2023-04-15T12:08:17.589Z,11.97
2023-04-15T12:09:17.660Z,11.99
2023-04-15T12:10:17.567Z,11.99
2023-04-15T12:11:17.661Z,11.99
2023-04-15T12:12:17.536Z,12.01
2023-04-15T12:13:17.604Z,12.04
2023-04-15T12:14:17.525Z,12.06
2023-04-15T12:15:17.534Z,12.11
2023-04-15T12:16:17.655Z,12.12
2023-04-15T12:17:17.642Z,12.11
2023-04-15T12:18:17.494Z,12.05
2023-04-15T12:19:17.628Z,11.97
2023-04-15T12:20:17.449Z,11.87
2023-04-15T12:21:17.490Z,11.78
2023-04-15T12:22:17.507Z,11.71
2023-04-15T12:23:17.473Z,11.65
2023-04-15T12:24:17.413Z,11.59
2023-04-15T12:25:17.593Z,11.53
2023-04-15T12:26:17.381Z,11.50
2023-04-15T12:27:17.460Z,11.47
2023-04-15T12:28:17.367Z,11.44
2023-04-15T12:29:17.411Z,11.38
2023-04-15T12:30:17.347Z,11.39
2023-04-15T12:31:17.504Z,11.36
2023-04-15T12:32:17.479Z,11.35
2023-04-15T12:33:17.360Z,11.35
2023-04-15T12:34:17.317Z,11.39
2023-04-15T12:35:17.343Z,11.44
2023-04-15T12:36:17.294Z,11.47
2023-04-15T12:37:17.471Z,11.52
2023-04-15T12:38:17.267Z,11.53
2023-04-15T12:39:17.407Z,11.56
2023-04-15T12:40:17.248Z,11.59
2023-04-15T12:41:17.339Z,11.61
2023-04-15T12:42:17.275Z,11.62
2023-04-15T12:43:17.317Z,11.62
2023-04-15T12:44:17.212Z,11.64
2023-04-15T12:45:17.345Z,11.65
2023-04-15T12:46:17.221Z,11.64
2023-04-15T12:47:17.324Z,11.65
2023-04-15T12:48:17.174Z,11.71
2023-04-15T12:49:17.223Z,11.77
2023-04-15T12:50:17.145Z,11.77
2023-04-15T12:51:17.273Z,11.82
2023-04-15T12:52:17.147Z,11.83
2023-04-15T12:53:17.156Z,11.87
2023-04-15T12:54:17.113Z,11.86
2023-04-15T12:55:17.237Z,11.89
2023-04-15T12:56:17.097Z,11.96
2023-04-15T12:57:17.198Z,12.01
2023-04-15T12:58:17.106Z,12.06
2023-04-15T12:59:17.097Z,12.09
2023-04-15T13:00:17.060Z,12.21
2023-04-15T13:01:17.120Z,12.29
2023-04-15T13:02:17.116Z,12.33
2023-04-15T13:03:17.219Z,12.37
2023-04-15T13:04:17.073Z,12.44
2023-04-15T13:05:17.028Z,12.46
2023-04-15T13:06:16.987Z,12.46
2023-04-15T13:07:17.069Z,12.41
2023-04-15T13:08:16.976Z,12.38
2023-04-15T13:09:17.069Z,12.30
2023-04-15T13:10:16.942Z,12.26
2023-04-15T13:11:17.040Z,12.26
2023-04-15T13:12:16.909Z,12.27
2023-04-15T13:13:16.978Z,12.29
2023-04-15T13:14:16.908Z,12.29
2023-04-15T13:15:16.990Z,12.30
2023-04-15T13:16:16.942Z,12.30
2023-04-15T13:17:17.018Z,12.33
2023-04-15T13:18:16.848Z,12.31
2023-04-15T13:19:16.924Z,12.33
2023-04-15T13:20:16.841Z,12.30
2023-04-15T13:21:16.947Z,12.20
2023-04-15T13:22:16.841Z,12.11
2023-04-15T13:23:16.862Z,12.05
2023-04-15T13:24:16.805Z,11.94
2023-04-15T13:25:16.868Z,11.90
2023-04-15T13:26:16.769Z,11.89
2023-04-15T13:27:16.804Z,11.90
2023-04-15T13:28:16.738Z,11.96
2023-04-15T13:29:16.825Z,12.01
2023-04-15T13:30:16.720Z,12.01
2023-04-15T13:31:16.884Z,12.02
2023-04-15T13:32:16.723Z,11.99
2023-04-15T13:33:16.803Z,11.94
2023-04-15T13:34:16.680Z,11.86
2023-04-15T13:35:16.709Z,11.78